Euro IV — IQNH — position and weather

sailwx.info

Track history (hours):
 
Tides and Currents Weather Stations Pressure Air Temp Water Temp Dewpoint Dewpoint Depression Visibility Wind Speed Wind Dir Waves Ship Positions

Euro IV

Last reported at 2014-Aug-28 10:33 UTC. Time now 2014-Aug-28 11:23 UTC.
Position N 44°08' E 009°40'.

Length 25 m; draft 1.3 m.

Type: Passenger vessel. MMSI: 247131500.

Date/timePositionNaut miles runAvg speedWind from/ knotsBaromVisibWave heightAir tempDewpointWater temp
2014-Aug-28 10:33N 44°08' E 009°40'1 0.8
2014-Aug-28 09:27N 44°08' E 009°41'1 1.6
2014-Aug-28 08:33N 44°09' E 009°39'2 2.3
2014-Aug-28 07:27N 44°07' E 009°42'7 8.2
2014-Aug-28 06:33N 44°04' E 009°51'3 0.1
2014-Aug-26 10:19N 44°06' E 009°50'0 0.0
2014-Aug-26 09:33N 44°06' E 009°50'0 0.0
2014-Aug-26 08:33N 44°06' E 009°50'0 0.0
2014-Aug-26 07:33N 44°06' E 009°50'0 0.0
2014-Aug-26 06:33N 44°06' E 009°50'0 0.0
2014-Aug-25 14:07N 44°06' E 009°50'0 0.0
2014-Aug-25 13:33N 44°06' E 009°50'0 0.0
2014-Aug-25 12:33N 44°06' E 009°50'0 0.0
2014-Aug-25 11:33N 44°06' E 009°50'0 0.0
2014-Aug-25 10:33N 44°06' E 009°50'0 0.0
2014-Aug-25 09:33N 44°06' E 009°50'0 0.0
2014-Aug-25 08:33N 44°06' E 009°50'0 0.0
2014-Aug-25 07:33N 44°06' E 009°50'0 0.2
2014-Aug-25 06:33N 44°06' E 009°50'  
2014-Aug-22 16:33N 44°03' E 009°51'3 3.0
2014-Aug-22 15:33N 44°06' E 009°50'4 4.0
2014-Aug-22 14:33N 44°02' E 009°51'1 0.7
2014-Aug-22 13:33N 44°03' E 009°52'1 0.7
2014-Aug-22 12:34N 44°02' E 009°51'4 3.9
2014-Aug-22 11:34N 44°06' E 009°50'0 0.0
2014-Aug-22 10:34N 44°06' E 009°50'0 0.0
2014-Aug-22 09:33N 44°06' E 009°50'3 2.8
2014-Aug-22 08:33N 44°04' E 009°51'1 0.9
2014-Aug-22 07:33N 44°03' E 009°52'4 0.2
2014-Aug-21 11:34N 44°06' E 009°50'0 0.0
2014-Aug-21 10:34N 44°06' E 009°50'2 1.5
2014-Aug-21 09:34N 44°05' E 009°51'1 1.5
2014-Aug-21 08:33N 44°06' E 009°50'0 0.0
2014-Aug-21 07:33N 44°06' E 009°50'0 0.0
2014-Aug-21 06:33N 44°06' E 009°50'0 0.0
2014-Aug-20 16:33N 44°06' E 009°50'4 4.2
2014-Aug-20 15:33N 44°06' E 009°44'5 5.3
2014-Aug-20 14:33N 44°03' E 009°50'3 3.4
2014-Aug-20 13:33N 44°04' E 009°55'0 0.1
2014-Aug-20 12:34N 44°04' E 009°54'0 0.1
2014-Aug-20 11:33N 44°04' E 009°55'3 3.4
2014-Aug-20 10:33N 44°03' E 009°50'3 3.1
2014-Aug-20 09:33N 44°06' E 009°50'0 0.0
2014-Aug-20 08:33N 44°06' E 009°50'0 0.0
2014-Aug-20 07:33N 44°06' E 009°50'0 0.0
2014-Aug-20 06:33N 44°06' E 009°50'0 0.0
2014-Aug-19 12:23N 44°06' E 009°50'0 0.0
2014-Aug-19 11:33N 44°06' E 009°50'0 0.0
2014-Aug-19 10:33N 44°06' E 009°50'0 0.0
2014-Aug-19 09:33N 44°06' E 009°50'0 0.0
2014-Aug-19 08:33N 44°06' E 009°50'0 0.0
2014-Aug-19 07:33N 44°06' E 009°50'0 0.0
2014-Aug-19 06:33N 44°06' E 009°50'4 0.3
2014-Aug-18 16:33N 44°03' E 009°51'4 3.6
2014-Aug-18 15:33N 44°06' E 009°50'4 4.0
2014-Aug-18 14:33N 44°02' E 009°51'3 2.6
2014-Aug-18 13:33N 44°05' E 009°51'3 2.6
2014-Aug-18 12:34N 44°02' E 009°51'4 3.9
2014-Aug-18 11:33N 44°06' E 009°50'0 0.0
2014-Aug-18 10:33N 44°06' E 009°50'  
Track history (hours):
 
Tides and Currents Weather Stations Pressure Air Temp Water Temp Dewpoint Dewpoint Depression Visibility Wind Speed Wind Dir Waves Ship Positions

Euro IV

Last reported at 2014-Aug-28 10:33 UTC. Time now 2014-Aug-28 11:23 UTC.
Position N 44°08' E 009°40'.

Length 25 m; draft 1.3 m.

Type: Passenger vessel. MMSI: 247131500.

Date/timePositionNaut miles runAvg speedWind from/ knotsBaromVisibWave heightAir tempDewpointWater temp
2014-Aug-28 10:33N 44°08' E 009°40'1 0.8
2014-Aug-28 09:27N 44°08' E 009°41'1 1.6
2014-Aug-28 08:33N 44°09' E 009°39'2 2.3
2014-Aug-28 07:27N 44°07' E 009°42'7 8.2
2014-Aug-28 06:33N 44°04' E 009°51'3 0.1
2014-Aug-26 10:19N 44°06' E 009°50'0 0.0
2014-Aug-26 09:33N 44°06' E 009°50'0 0.0
2014-Aug-26 08:33N 44°06' E 009°50'0 0.0
2014-Aug-26 07:33N 44°06' E 009°50'0 0.0
2014-Aug-26 06:33N 44°06' E 009°50'0 0.0
2014-Aug-25 14:07N 44°06' E 009°50'0 0.0
2014-Aug-25 13:33N 44°06' E 009°50'0 0.0
2014-Aug-25 12:33N 44°06' E 009°50'0 0.0
2014-Aug-25 11:33N 44°06' E 009°50'0 0.0
2014-Aug-25 10:33N 44°06' E 009°50'0 0.0
2014-Aug-25 09:33N 44°06' E 009°50'0 0.0
2014-Aug-25 08:33N 44°06' E 009°50'0 0.0
2014-Aug-25 07:33N 44°06' E 009°50'0 0.2
2014-Aug-25 06:33N 44°06' E 009°50'  
2014-Aug-22 16:33N 44°03' E 009°51'3 3.0
2014-Aug-22 15:33N 44°06' E 009°50'4 4.0
2014-Aug-22 14:33N 44°02' E 009°51'1 0.7
2014-Aug-22 13:33N 44°03' E 009°52'1 0.7
2014-Aug-22 12:34N 44°02' E 009°51'4 3.9
2014-Aug-22 11:34N 44°06' E 009°50'0 0.0
2014-Aug-22 10:34N 44°06' E 009°50'0 0.0
2014-Aug-22 09:33N 44°06' E 009°50'3 2.8
2014-Aug-22 08:33N 44°04' E 009°51'1 0.9
2014-Aug-22 07:33N 44°03' E 009°52'4 0.2
2014-Aug-21 11:34N 44°06' E 009°50'0 0.0
2014-Aug-21 10:34N 44°06' E 009°50'2 1.5
2014-Aug-21 09:34N 44°05' E 009°51'1 1.5
2014-Aug-21 08:33N 44°06' E 009°50'0 0.0
2014-Aug-21 07:33N 44°06' E 009°50'0 0.0
2014-Aug-21 06:33N 44°06' E 009°50'0 0.0
2014-Aug-20 16:33N 44°06' E 009°50'4 4.2
2014-Aug-20 15:33N 44°06' E 009°44'5 5.3
2014-Aug-20 14:33N 44°03' E 009°50'3 3.4
2014-Aug-20 13:33N 44°04' E 009°55'0 0.1
2014-Aug-20 12:34N 44°04' E 009°54'0 0.1
2014-Aug-20 11:33N 44°04' E 009°55'3 3.4
2014-Aug-20 10:33N 44°03' E 009°50'3 3.1
2014-Aug-20 09:33N 44°06' E 009°50'0 0.0
2014-Aug-20 08:33N 44°06' E 009°50'0 0.0
2014-Aug-20 07:33N 44°06' E 009°50'0 0.0
2014-Aug-20 06:33N 44°06' E 009°50'0 0.0
2014-Aug-19 12:23N 44°06' E 009°50'0 0.0
2014-Aug-19 11:33N 44°06' E 009°50'0 0.0
2014-Aug-19 10:33N 44°06' E 009°50'0 0.0
2014-Aug-19 09:33N 44°06' E 009°50'0 0.0
2014-Aug-19 08:33N 44°06' E 009°50'0 0.0
2014-Aug-19 07:33N 44°06' E 009°50'0 0.0
2014-Aug-19 06:33N 44°06' E 009°50'4 0.3
2014-Aug-18 16:33N 44°03' E 009°51'4 3.6
2014-Aug-18 15:33N 44°06' E 009°50'4 4.0
2014-Aug-18 14:33N 44°02' E 009°51'3 2.6
2014-Aug-18 13:33N 44°05' E 009°51'3 2.6
2014-Aug-18 12:34N 44°02' E 009°51'4 3.9
2014-Aug-18 11:33N 44°06' E 009°50'0 0.0
2014-Aug-18 10:33N 44°06' E 009°50'  

Dump ship's entire track history